Dwiputra — C6MJ6 — position and weather

sailwx.info

Track history (hours):
 
Tides and Currents Weather Stations Pressure Air Temp Water Temp Dewpoint Dewpoint Depression Visibility Wind Speed Wind Dir Waves Ship Positions

Dwiputra

Last reported at 2017-Dec-09 09:20 UTC. Time now 2017-Dec-13 18:56 UTC.
Position N 34°06' E 129°41'.

Length 272 m; beam 47.2 m.

Type: Tanker. MMSI: 308883000.

Date/timePositionNaut miles runAvg speedWind from/ knotsBaromVisibWave heightAir tempDewpointWater temp
2017-Dec-09 09:20N 34°06' E 129°41'2 7.0
2017-Dec-09 09:00N 34°05' E 129°43'3 6.8
2017-Dec-09 08:30N 34°05' E 129°48'3 6.4
2017-Dec-09 08:00N 34°05' E 129°51'4 7.1
2017-Dec-09 07:30N 34°05' E 129°56'4 7.5
2017-Dec-09 07:00N 34°05' E 130°00'4 7.8
2017-Dec-09 06:30N 34°05' E 130°05'4 8.0
2017-Dec-09 06:00N 34°05' E 130°10'4 7.9
2017-Dec-09 05:31N 34°05' E 130°14'4 8.1
2017-Dec-09 05:00N 34°05' E 130°19'4 8.1
2017-Dec-09 04:30N 34°05' E 130°24'4 8.3
2017-Dec-09 04:00N 34°05' E 130°29'4 8.2
2017-Dec-09 03:30N 34°05' E 130°34'4 8.8
2017-Dec-09 03:00N 34°05' E 130°39'510.5
2017-Dec-09 02:30N 34°05' E 130°46'510.1
2017-Dec-09 02:00N 34°01' E 130°51'4 7.7
2017-Dec-09 01:30N 33°58' E 130°53'3 5.5
2017-Dec-09 01:00N 33°55' E 130°52'0 0.3
2017-Dec-09 00:29N 33°55' E 130°52'0 0.0
2017-Dec-08 23:53N 33°55' E 130°52'0 0.0
2017-Dec-08 23:26N 33°55' E 130°52'0 0.0
2017-Dec-08 22:59N 33°55' E 130°52'0 0.0
2017-Dec-08 22:23N 33°55' E 130°52'0 0.0
2017-Dec-08 21:56N 33°55' E 130°52'0 0.0
2017-Dec-08 21:29N 33°55' E 130°52'0 0.0
2017-Dec-08 20:56N 33°55' E 130°52'0 0.0
2017-Dec-08 20:26N 33°55' E 130°52'0 0.0
2017-Dec-08 19:59N 33°55' E 130°52'0 0.0
2017-Dec-08 19:29N 33°55' E 130°52'0 0.0
2017-Dec-08 18:59N 33°55' E 130°52'0 0.0
2017-Dec-08 18:26N 33°55' E 130°52'0 0.0
2017-Dec-08 17:56N 33°55' E 130°52'0 0.0
2017-Dec-08 17:26N 33°55' E 130°52'0 0.0
2017-Dec-08 16:47N 33°55' E 130°52'0 0.0
2017-Dec-08 16:26N 33°55' E 130°52'0 0.0
2017-Dec-08 15:59N 33°55' E 130°52'0 0.0
2017-Dec-08 15:29N 33°55' E 130°52'0 0.0
2017-Dec-08 14:56N 33°55' E 130°52'0 0.0
2017-Dec-08 14:26N 33°55' E 130°52'0 0.0
2017-Dec-08 13:56N 33°55' E 130°52'0 0.0
2017-Dec-08 13:29N 33°55' E 130°52'0 0.0
2017-Dec-08 12:56N 33°55' E 130°52'0 0.0
2017-Dec-08 12:26N 33°55' E 130°52'0 0.0
2017-Dec-08 11:56N 33°55' E 130°52'0 0.0
2017-Dec-08 11:29N 33°55' E 130°52'0 0.0
2017-Dec-08 10:59N 33°55' E 130°52'0 0.0
2017-Dec-08 10:29N 33°55' E 130°52'0 0.0
2017-Dec-08 09:59N 33°55' E 130°52'0 0.0
2017-Dec-08 09:29N 33°55' E 130°52'0 0.0
2017-Dec-08 08:56N 33°55' E 130°52'0 0.0
2017-Dec-08 08:29N 33°55' E 130°52'0 0.0
2017-Dec-08 07:56N 33°55' E 130°52'0 0.1
2017-Dec-08 07:29N 33°55' E 130°52'0 0.0
2017-Dec-08 06:59N 33°55' E 130°52'0 0.0
2017-Dec-08 06:29N 33°55' E 130°52'0 0.0
2017-Dec-08 05:56N 33°55' E 130°52'0 0.0
2017-Dec-08 05:29N 33°55' E 130°52'0 0.0
2017-Dec-08 04:56N 33°55' E 130°52'0 0.0
2017-Dec-08 04:29N 33°55' E 130°52'0 0.0
2017-Dec-08 03:59N 33°55' E 130°52'0 0.0
2017-Dec-08 03:26N 33°55' E 130°52'0 0.0
2017-Dec-08 02:56N 33°55' E 130°52'0 0.0
2017-Dec-08 02:29N 33°55' E 130°52'0 0.0
2017-Dec-08 01:59N 33°55' E 130°52'0 0.0
2017-Dec-08 01:26N 33°55' E 130°52'0 0.0
2017-Dec-08 00:59N 33°55' E 130°52'0 0.0
2017-Dec-08 00:29N 33°55' E 130°52'0 0.0
2017-Dec-07 23:56N 33°55' E 130°52'0 0.0
2017-Dec-07 23:11N 33°55' E 130°52'0 0.0
2017-Dec-07 22:56N 33°55' E 130°52'0 0.0
2017-Dec-07 22:26N 33°55' E 130°52'0 0.0
2017-Dec-07 21:56N 33°55' E 130°52'0 0.0
2017-Dec-07 21:29N 33°55' E 130°52'0 0.0
2017-Dec-07 20:59N 33°55' E 130°52'0 0.0
2017-Dec-07 20:29N 33°55' E 130°52'0 0.0
2017-Dec-07 19:56N 33°55' E 130°52'0 0.0
2017-Dec-07 19:26N 33°55' E 130°52'0 0.0
2017-Dec-07 18:53N 33°55' E 130°52'0 0.0
2017-Dec-07 18:29N 33°55' E 130°52'0 0.0
2017-Dec-07 17:56N 33°55' E 130°52'0 0.0
2017-Dec-07 17:29N 33°55' E 130°52'0 0.0
2017-Dec-07 16:59N 33°55' E 130°52'0 0.0
2017-Dec-07 16:26N 33°55' E 130°52'0 0.0
2017-Dec-07 15:59N 33°55' E 130°52'0 0.0
2017-Dec-07 15:29N 33°55' E 130°52'0 0.0
2017-Dec-07 14:59N 33°55' E 130°52'0 0.0
2017-Dec-07 14:29N 33°55' E 130°52'0 0.0
2017-Dec-07 13:56N 33°55' E 130°52'0 0.0
2017-Dec-07 13:29N 33°55' E 130°52'0 0.0
2017-Dec-07 12:56N 33°55' E 130°52'0 0.0
2017-Dec-07 12:29N 33°55' E 130°52'0 0.0
2017-Dec-07 11:50N 33°55' E 130°52'0 0.0
2017-Dec-07 11:29N 33°55' E 130°52'0 0.0
2017-Dec-07 10:59N 33°55' E 130°52'0 0.0
2017-Dec-07 10:26N 33°55' E 130°52'0 0.0
2017-Dec-07 09:59N 33°55' E 130°52'0 0.0
2017-Dec-07 09:29N 33°55' E 130°52'0 0.0
2017-Dec-07 08:59N 33°55' E 130°52'0 0.0
2017-Dec-07 08:26N 33°55' E 130°52'0 0.0
2017-Dec-07 07:56N 33°55' E 130°52'0 0.0
2017-Dec-07 07:26N 33°55' E 130°52'0 0.0
2017-Dec-07 06:56N 33°55' E 130°52'0 0.0
2017-Dec-07 06:26N 33°55' E 130°52'0 0.0
2017-Dec-07 05:59N 33°55' E 130°52'0 0.0
2017-Dec-07 05:26N 33°55' E 130°52'0 0.0
2017-Dec-07 04:59N 33°55' E 130°52'0 0.0
2017-Dec-07 04:20N 33°55' E 130°52'0 0.0
2017-Dec-07 03:56N 33°55' E 130°52'0 0.0
2017-Dec-07 03:29N 33°55' E 130°52'0 0.0
2017-Dec-07 02:59N 33°55' E 130°52'0 0.0
2017-Dec-07 02:29N 33°55' E 130°52'0 0.0
2017-Dec-07 01:56N 33°55' E 130°52'0 0.0
2017-Dec-07 01:29N 33°55' E 130°52'0 0.0
2017-Dec-07 00:56N 33°55' E 130°52'0 0.0
2017-Dec-07 00:30N 33°55' E 130°52'0 0.3
2017-Dec-07 00:00N 33°55' E 130°52'1 1.9
2017-Dec-06 23:30N 33°56' E 130°52'3 6.6
2017-Dec-06 23:00N 33°59' E 130°52'4 7.8
2017-Dec-06 22:30N 34°02' E 130°49'2 5.0
2017-Dec-06 22:00N 34°04' E 130°47'3 5.1
2017-Dec-06 21:30N 34°05' E 130°44'4 8.5
2017-Dec-06 21:00N 34°06' E 130°39'  
2017-Dec-03 09:02N 24°58' E 123°41'011.7
2017-Dec-03 09:00N 24°58' E 123°41'611.6
2017-Dec-03 08:30N 24°52' E 123°39'611.9
2017-Dec-03 08:00N 24°47' E 123°36'611.9
2017-Dec-03 07:30N 24°41' E 123°34'611.6
2017-Dec-03 07:00N 24°36' E 123°31'611.4
2017-Dec-03 06:30N 24°31' E 123°29'611.2
2017-Dec-03 06:00N 24°26' E 123°26'611.1
2017-Dec-03 05:30N 24°21' E 123°24'611.1
2017-Dec-03 05:00N 24°15' E 123°21'611.1
2017-Dec-03 04:30N 24°10' E 123°19'510.9
2017-Dec-03 04:00N 24°05' E 123°17'611.2
2017-Dec-03 03:30N 24°00' E 123°14'611.4
2017-Dec-03 03:00N 23°55' E 123°12'611.7
2017-Dec-03 02:30N 23°50' E 123°09'612.1
2017-Dec-03 02:00N 23°44' E 123°06'612.2
2017-Dec-03 01:30N 23°39' E 123°04'612.4
2017-Dec-03 01:00N 23°33' E 123°01'170 9.0
2017-Dec-02 06:05N 22°07' E 120°21'111.4
2017-Dec-02 06:00N 22°08' E 120°20'611.3
2017-Dec-02 05:30N 22°13' E 120°17'510.9
2017-Dec-02 05:00N 22°18' E 120°14'510.4
2017-Dec-02 04:31N 22°22' E 120°11'510.3
2017-Dec-02 04:00N 22°24' E 120°06'510.6
2017-Dec-02 03:30N 22°28' E 120°01'2 4.2
2017-Dec-02 03:00N 22°27' E 120°04'611.4
2017-Dec-02 02:30N 22°23' E 120°07'611.4
2017-Dec-02 02:00N 22°18' E 120°11'611.1
2017-Dec-02 01:30N 22°14' E 120°15'510.8
2017-Dec-02 01:01N 22°10' E 120°19'1610.4
2017-Dec-01 23:30N 21°57' E 120°29'7 1.4
2017-Dec-01 18:33N 22°03' E 120°24'012.5
2017-Dec-01 18:30N 22°04' E 120°24'510.9
2017-Dec-01 18:00N 22°09' E 120°22'710.6
2017-Dec-01 17:21N 22°13' E 120°16'410.6
2017-Dec-01 16:59N 22°16' E 120°13'510.7
2017-Dec-01 16:30N 22°20' E 120°10'510.6
2017-Dec-01 16:00N 22°24' E 120°06'510.7
2017-Dec-01 15:30N 22°28' E 120°03'510.4
2017-Dec-01 15:00N 22°33' E 120°01'3 5.9
2017-Dec-01 14:30N 22°35' E 119°58'611.6
2017-Dec-01 14:00N 22°31' E 120°03'612.0
2017-Dec-01 13:30N 22°27' E 120°07'612.0
2017-Dec-01 13:00N 22°22' E 120°12'611.4
2017-Dec-01 12:30N 22°17' E 120°15'611.3
2017-Dec-01 12:00N 22°13' E 120°19'510.2
2017-Dec-01 11:30N 22°08' E 120°21'1 0.1
2017-Dec-01 04:52N 22°08' E 120°21'411.4
2017-Dec-01 04:30N 22°11' E 120°18'511.1
2017-Dec-01 04:00N 22°16' E 120°15'511.0
2017-Dec-01 03:30N 22°20' E 120°12'510.7
2017-Dec-01 03:00N 22°25' E 120°08'510.2
2017-Dec-01 02:30N 22°28' E 120°04'4 7.0
2017-Dec-01 02:00N 22°26' E 120°07'611.2
2017-Dec-01 01:30N 22°22' E 120°11'611.5
2017-Dec-01 01:01N 22°17' E 120°14'711.2
2017-Dec-01 00:22N 22°11' E 120°19'1710.8
2017-Nov-30 22:47N 21°56' E 120°28'4 0.6
2017-Nov-30 15:30N 21°60' E 120°26'611.6
2017-Nov-30 15:01N 22°05' E 120°24'611.7
2017-Nov-30 14:29N 22°11' E 120°21'611.7
2017-Nov-30 13:56N 22°16' E 120°17'511.1
2017-Nov-30 13:30N 22°19' E 120°13'611.2
2017-Nov-30 13:00N 22°24' E 120°09'510.8
2017-Nov-30 12:31N 22°27' E 120°05'1 2.2
2017-Nov-30 12:00N 22°27' E 120°06'611.1
2017-Nov-30 11:31N 22°22' E 120°08'510.6
2017-Nov-30 11:01N 22°17' E 120°11'510.5
2017-Nov-30 10:30N 22°15' E 120°16'510.9
2017-Nov-30 10:00N 22°12' E 120°20'610.7
2017-Nov-30 09:28N 22°06' E 120°22'911.0
2017-Nov-30 08:40N 21°58' E 120°27'311.1
2017-Nov-30 08:24N 21°56' E 120°29'10 1.1
2017-Nov-29 23:48N 22°05' E 120°24'412.3
2017-Nov-29 23:30N 22°08' E 120°22'912.1
2017-Nov-29 22:46N 22°15' E 120°16'311.4
2017-Nov-29 22:31N 22°17' E 120°14'611.5
2017-Nov-29 22:01N 22°22' E 120°11'611.3
2017-Nov-29 21:30N 22°27' E 120°07'510.1
2017-Nov-29 21:01N 22°31' E 120°04'5 9.8
2017-Nov-29 20:30N 22°27' E 120°07'611.5
2017-Nov-29 20:00N 22°22' E 120°11'611.1
2017-Nov-29 19:31N 22°18' E 120°14'611.1
2017-Nov-29 19:01N 22°13' E 120°17'911.2
2017-Nov-29 18:14N 22°05' E 120°22'310.9
2017-Nov-29 17:59N 22°03' E 120°23'610.9
2017-Nov-29 17:26N 21°58' E 120°27'13 2.3
2017-Nov-29 11:54N 22°09' E 120°20'512.4
2017-Nov-29 11:30N 22°13' E 120°17'612.1
2017-Nov-29 11:00N 22°18' E 120°13'611.8
2017-Nov-29 10:30N 22°23' E 120°10'611.2
2017-Nov-29 10:00N 22°27' E 120°06'2 3.4
2017-Nov-29 09:31N 22°29' E 120°05'  
Track history (hours):
 
Tides and Currents Weather Stations Pressure Air Temp Water Temp Dewpoint Dewpoint Depression Visibility Wind Speed Wind Dir Waves Ship Positions

Dwiputra

Last reported at 2017-Dec-09 09:20 UTC. Time now 2017-Dec-13 18:56 UTC.
Position N 34°06' E 129°41'.

Length 272 m; beam 47.2 m.

Type: Tanker. MMSI: 308883000.

Date/timePositionNaut miles runAvg speedWind from/ knotsBaromVisibWave heightAir tempDewpointWater temp
2017-Dec-09 09:20N 34°06' E 129°41'2 7.0
2017-Dec-09 09:00N 34°05' E 129°43'3 6.8
2017-Dec-09 08:30N 34°05' E 129°48'3 6.4
2017-Dec-09 08:00N 34°05' E 129°51'4 7.1
2017-Dec-09 07:30N 34°05' E 129°56'4 7.5
2017-Dec-09 07:00N 34°05' E 130°00'4 7.8
2017-Dec-09 06:30N 34°05' E 130°05'4 8.0
2017-Dec-09 06:00N 34°05' E 130°10'4 7.9
2017-Dec-09 05:31N 34°05' E 130°14'4 8.1
2017-Dec-09 05:00N 34°05' E 130°19'4 8.1
2017-Dec-09 04:30N 34°05' E 130°24'4 8.3
2017-Dec-09 04:00N 34°05' E 130°29'4 8.2
2017-Dec-09 03:30N 34°05' E 130°34'4 8.8
2017-Dec-09 03:00N 34°05' E 130°39'510.5
2017-Dec-09 02:30N 34°05' E 130°46'510.1
2017-Dec-09 02:00N 34°01' E 130°51'4 7.7
2017-Dec-09 01:30N 33°58' E 130°53'3 5.5
2017-Dec-09 01:00N 33°55' E 130°52'0 0.3
2017-Dec-09 00:29N 33°55' E 130°52'0 0.0
2017-Dec-08 23:53N 33°55' E 130°52'0 0.0
2017-Dec-08 23:26N 33°55' E 130°52'0 0.0
2017-Dec-08 22:59N 33°55' E 130°52'0 0.0
2017-Dec-08 22:23N 33°55' E 130°52'0 0.0
2017-Dec-08 21:56N 33°55' E 130°52'0 0.0
2017-Dec-08 21:29N 33°55' E 130°52'0 0.0
2017-Dec-08 20:56N 33°55' E 130°52'0 0.0
2017-Dec-08 20:26N 33°55' E 130°52'0 0.0
2017-Dec-08 19:59N 33°55' E 130°52'0 0.0
2017-Dec-08 19:29N 33°55' E 130°52'0 0.0
2017-Dec-08 18:59N 33°55' E 130°52'0 0.0
2017-Dec-08 18:26N 33°55' E 130°52'0 0.0
2017-Dec-08 17:56N 33°55' E 130°52'0 0.0
2017-Dec-08 17:26N 33°55' E 130°52'0 0.0
2017-Dec-08 16:47N 33°55' E 130°52'0 0.0
2017-Dec-08 16:26N 33°55' E 130°52'0 0.0
2017-Dec-08 15:59N 33°55' E 130°52'0 0.0
2017-Dec-08 15:29N 33°55' E 130°52'0 0.0
2017-Dec-08 14:56N 33°55' E 130°52'0 0.0
2017-Dec-08 14:26N 33°55' E 130°52'0 0.0
2017-Dec-08 13:56N 33°55' E 130°52'0 0.0
2017-Dec-08 13:29N 33°55' E 130°52'0 0.0
2017-Dec-08 12:56N 33°55' E 130°52'0 0.0
2017-Dec-08 12:26N 33°55' E 130°52'0 0.0
2017-Dec-08 11:56N 33°55' E 130°52'0 0.0
2017-Dec-08 11:29N 33°55' E 130°52'0 0.0
2017-Dec-08 10:59N 33°55' E 130°52'0 0.0
2017-Dec-08 10:29N 33°55' E 130°52'0 0.0
2017-Dec-08 09:59N 33°55' E 130°52'0 0.0
2017-Dec-08 09:29N 33°55' E 130°52'0 0.0
2017-Dec-08 08:56N 33°55' E 130°52'0 0.0
2017-Dec-08 08:29N 33°55' E 130°52'0 0.0
2017-Dec-08 07:56N 33°55' E 130°52'0 0.1
2017-Dec-08 07:29N 33°55' E 130°52'0 0.0
2017-Dec-08 06:59N 33°55' E 130°52'0 0.0
2017-Dec-08 06:29N 33°55' E 130°52'0 0.0
2017-Dec-08 05:56N 33°55' E 130°52'0 0.0
2017-Dec-08 05:29N 33°55' E 130°52'0 0.0
2017-Dec-08 04:56N 33°55' E 130°52'0 0.0
2017-Dec-08 04:29N 33°55' E 130°52'0 0.0
2017-Dec-08 03:59N 33°55' E 130°52'0 0.0
2017-Dec-08 03:26N 33°55' E 130°52'0 0.0
2017-Dec-08 02:56N 33°55' E 130°52'0 0.0
2017-Dec-08 02:29N 33°55' E 130°52'0 0.0
2017-Dec-08 01:59N 33°55' E 130°52'0 0.0
2017-Dec-08 01:26N 33°55' E 130°52'0 0.0
2017-Dec-08 00:59N 33°55' E 130°52'0 0.0
2017-Dec-08 00:29N 33°55' E 130°52'0 0.0
2017-Dec-07 23:56N 33°55' E 130°52'0 0.0
2017-Dec-07 23:11N 33°55' E 130°52'0 0.0
2017-Dec-07 22:56N 33°55' E 130°52'0 0.0
2017-Dec-07 22:26N 33°55' E 130°52'0 0.0
2017-Dec-07 21:56N 33°55' E 130°52'0 0.0
2017-Dec-07 21:29N 33°55' E 130°52'0 0.0
2017-Dec-07 20:59N 33°55' E 130°52'0 0.0
2017-Dec-07 20:29N 33°55' E 130°52'0 0.0
2017-Dec-07 19:56N 33°55' E 130°52'0 0.0
2017-Dec-07 19:26N 33°55' E 130°52'0 0.0
2017-Dec-07 18:53N 33°55' E 130°52'0 0.0
2017-Dec-07 18:29N 33°55' E 130°52'0 0.0
2017-Dec-07 17:56N 33°55' E 130°52'0 0.0
2017-Dec-07 17:29N 33°55' E 130°52'0 0.0
2017-Dec-07 16:59N 33°55' E 130°52'0 0.0
2017-Dec-07 16:26N 33°55' E 130°52'0 0.0
2017-Dec-07 15:59N 33°55' E 130°52'0 0.0
2017-Dec-07 15:29N 33°55' E 130°52'0 0.0
2017-Dec-07 14:59N 33°55' E 130°52'0 0.0
2017-Dec-07 14:29N 33°55' E 130°52'0 0.0
2017-Dec-07 13:56N 33°55' E 130°52'0 0.0
2017-Dec-07 13:29N 33°55' E 130°52'0 0.0
2017-Dec-07 12:56N 33°55' E 130°52'0 0.0
2017-Dec-07 12:29N 33°55' E 130°52'0 0.0
2017-Dec-07 11:50N 33°55' E 130°52'0 0.0
2017-Dec-07 11:29N 33°55' E 130°52'0 0.0
2017-Dec-07 10:59N 33°55' E 130°52'0 0.0
2017-Dec-07 10:26N 33°55' E 130°52'0 0.0
2017-Dec-07 09:59N 33°55' E 130°52'0 0.0
2017-Dec-07 09:29N 33°55' E 130°52'0 0.0
2017-Dec-07 08:59N 33°55' E 130°52'0 0.0
2017-Dec-07 08:26N 33°55' E 130°52'0 0.0
2017-Dec-07 07:56N 33°55' E 130°52'0 0.0
2017-Dec-07 07:26N 33°55' E 130°52'0 0.0
2017-Dec-07 06:56N 33°55' E 130°52'0 0.0
2017-Dec-07 06:26N 33°55' E 130°52'0 0.0
2017-Dec-07 05:59N 33°55' E 130°52'0 0.0
2017-Dec-07 05:26N 33°55' E 130°52'0 0.0
2017-Dec-07 04:59N 33°55' E 130°52'0 0.0
2017-Dec-07 04:20N 33°55' E 130°52'0 0.0
2017-Dec-07 03:56N 33°55' E 130°52'0 0.0
2017-Dec-07 03:29N 33°55' E 130°52'0 0.0
2017-Dec-07 02:59N 33°55' E 130°52'0 0.0
2017-Dec-07 02:29N 33°55' E 130°52'0 0.0
2017-Dec-07 01:56N 33°55' E 130°52'0 0.0
2017-Dec-07 01:29N 33°55' E 130°52'0 0.0
2017-Dec-07 00:56N 33°55' E 130°52'0 0.0
2017-Dec-07 00:30N 33°55' E 130°52'0 0.3
2017-Dec-07 00:00N 33°55' E 130°52'1 1.9
2017-Dec-06 23:30N 33°56' E 130°52'3 6.6
2017-Dec-06 23:00N 33°59' E 130°52'4 7.8
2017-Dec-06 22:30N 34°02' E 130°49'2 5.0
2017-Dec-06 22:00N 34°04' E 130°47'3 5.1
2017-Dec-06 21:30N 34°05' E 130°44'4 8.5
2017-Dec-06 21:00N 34°06' E 130°39'  
2017-Dec-03 09:02N 24°58' E 123°41'011.7
2017-Dec-03 09:00N 24°58' E 123°41'611.6
2017-Dec-03 08:30N 24°52' E 123°39'611.9
2017-Dec-03 08:00N 24°47' E 123°36'611.9
2017-Dec-03 07:30N 24°41' E 123°34'611.6
2017-Dec-03 07:00N 24°36' E 123°31'611.4
2017-Dec-03 06:30N 24°31' E 123°29'611.2
2017-Dec-03 06:00N 24°26' E 123°26'611.1
2017-Dec-03 05:30N 24°21' E 123°24'611.1
2017-Dec-03 05:00N 24°15' E 123°21'611.1
2017-Dec-03 04:30N 24°10' E 123°19'510.9
2017-Dec-03 04:00N 24°05' E 123°17'611.2
2017-Dec-03 03:30N 24°00' E 123°14'611.4
2017-Dec-03 03:00N 23°55' E 123°12'611.7
2017-Dec-03 02:30N 23°50' E 123°09'612.1
2017-Dec-03 02:00N 23°44' E 123°06'612.2
2017-Dec-03 01:30N 23°39' E 123°04'612.4
2017-Dec-03 01:00N 23°33' E 123°01'170 9.0
2017-Dec-02 06:05N 22°07' E 120°21'111.4
2017-Dec-02 06:00N 22°08' E 120°20'611.3
2017-Dec-02 05:30N 22°13' E 120°17'510.9
2017-Dec-02 05:00N 22°18' E 120°14'510.4
2017-Dec-02 04:31N 22°22' E 120°11'510.3
2017-Dec-02 04:00N 22°24' E 120°06'510.6
2017-Dec-02 03:30N 22°28' E 120°01'2 4.2
2017-Dec-02 03:00N 22°27' E 120°04'611.4
2017-Dec-02 02:30N 22°23' E 120°07'611.4
2017-Dec-02 02:00N 22°18' E 120°11'611.1
2017-Dec-02 01:30N 22°14' E 120°15'510.8
2017-Dec-02 01:01N 22°10' E 120°19'1610.4
2017-Dec-01 23:30N 21°57' E 120°29'7 1.4
2017-Dec-01 18:33N 22°03' E 120°24'012.5
2017-Dec-01 18:30N 22°04' E 120°24'510.9
2017-Dec-01 18:00N 22°09' E 120°22'710.6
2017-Dec-01 17:21N 22°13' E 120°16'410.6
2017-Dec-01 16:59N 22°16' E 120°13'510.7
2017-Dec-01 16:30N 22°20' E 120°10'510.6
2017-Dec-01 16:00N 22°24' E 120°06'510.7
2017-Dec-01 15:30N 22°28' E 120°03'510.4
2017-Dec-01 15:00N 22°33' E 120°01'3 5.9
2017-Dec-01 14:30N 22°35' E 119°58'611.6
2017-Dec-01 14:00N 22°31' E 120°03'612.0
2017-Dec-01 13:30N 22°27' E 120°07'612.0
2017-Dec-01 13:00N 22°22' E 120°12'611.4
2017-Dec-01 12:30N 22°17' E 120°15'611.3
2017-Dec-01 12:00N 22°13' E 120°19'510.2
2017-Dec-01 11:30N 22°08' E 120°21'1 0.1
2017-Dec-01 04:52N 22°08' E 120°21'411.4
2017-Dec-01 04:30N 22°11' E 120°18'511.1
2017-Dec-01 04:00N 22°16' E 120°15'511.0
2017-Dec-01 03:30N 22°20' E 120°12'510.7
2017-Dec-01 03:00N 22°25' E 120°08'510.2
2017-Dec-01 02:30N 22°28' E 120°04'4 7.0
2017-Dec-01 02:00N 22°26' E 120°07'611.2
2017-Dec-01 01:30N 22°22' E 120°11'611.5
2017-Dec-01 01:01N 22°17' E 120°14'711.2
2017-Dec-01 00:22N 22°11' E 120°19'1710.8
2017-Nov-30 22:47N 21°56' E 120°28'4 0.6
2017-Nov-30 15:30N 21°60' E 120°26'611.6
2017-Nov-30 15:01N 22°05' E 120°24'611.7
2017-Nov-30 14:29N 22°11' E 120°21'611.7
2017-Nov-30 13:56N 22°16' E 120°17'511.1
2017-Nov-30 13:30N 22°19' E 120°13'611.2
2017-Nov-30 13:00N 22°24' E 120°09'510.8
2017-Nov-30 12:31N 22°27' E 120°05'1 2.2
2017-Nov-30 12:00N 22°27' E 120°06'611.1
2017-Nov-30 11:31N 22°22' E 120°08'510.6
2017-Nov-30 11:01N 22°17' E 120°11'510.5
2017-Nov-30 10:30N 22°15' E 120°16'510.9
2017-Nov-30 10:00N 22°12' E 120°20'610.7
2017-Nov-30 09:28N 22°06' E 120°22'911.0
2017-Nov-30 08:40N 21°58' E 120°27'311.1
2017-Nov-30 08:24N 21°56' E 120°29'10 1.1
2017-Nov-29 23:48N 22°05' E 120°24'412.3
2017-Nov-29 23:30N 22°08' E 120°22'912.1
2017-Nov-29 22:46N 22°15' E 120°16'311.4
2017-Nov-29 22:31N 22°17' E 120°14'611.5
2017-Nov-29 22:01N 22°22' E 120°11'611.3
2017-Nov-29 21:30N 22°27' E 120°07'510.1
2017-Nov-29 21:01N 22°31' E 120°04'5 9.8
2017-Nov-29 20:30N 22°27' E 120°07'611.5
2017-Nov-29 20:00N 22°22' E 120°11'611.1
2017-Nov-29 19:31N 22°18' E 120°14'611.1
2017-Nov-29 19:01N 22°13' E 120°17'911.2
2017-Nov-29 18:14N 22°05' E 120°22'310.9
2017-Nov-29 17:59N 22°03' E 120°23'610.9
2017-Nov-29 17:26N 21°58' E 120°27'13 2.3
2017-Nov-29 11:54N 22°09' E 120°20'512.4
2017-Nov-29 11:30N 22°13' E 120°17'612.1
2017-Nov-29 11:00N 22°18' E 120°13'611.8
2017-Nov-29 10:30N 22°23' E 120°10'611.2
2017-Nov-29 10:00N 22°27' E 120°06'2 3.4
2017-Nov-29 09:31N 22°29' E 120°05'  

Dump ship's entire track history